createdAt,value
2023-01-29T00:01:34.011Z,5.48
2023-01-29T00:04:25.121Z,5.45
2023-01-29T00:07:16.265Z,5.43
2023-01-29T00:10:07.702Z,5.42
2023-01-29T00:12:58.232Z,5.41
2023-01-29T00:15:56.500Z,5.40
2023-01-29T00:18:47.283Z,5.42
2023-01-29T00:21:37.812Z,5.44
2023-01-29T00:24:28.208Z,5.47
2023-01-29T00:27:18.653Z,5.51
2023-01-29T00:30:12.251Z,5.54
2023-01-29T00:33:02.811Z,5.55
2023-01-29T00:35:53.356Z,5.56
2023-01-29T00:38:44.123Z,5.56
2023-01-29T00:41:51.915Z,5.55
2023-01-29T00:45:00.781Z,5.53
2023-01-29T00:47:51.228Z,5.53
2023-01-29T00:50:42.284Z,5.53
2023-01-29T00:53:32.789Z,5.53
2023-01-29T00:56:23.240Z,5.53
2023-01-29T00:59:14.147Z,5.53
2023-01-29T01:02:22.586Z,5.54
2023-01-29T01:05:18.329Z,5.55
2023-01-29T01:08:29.050Z,5.56
2023-01-29T01:11:21.215Z,5.56
2023-01-29T01:14:11.741Z,5.56
2023-01-29T01:17:02.178Z,5.57
2023-01-29T01:19:52.607Z,5.58
2023-01-29T01:22:43.144Z,5.56
2023-01-29T01:25:33.933Z,5.52
2023-01-29T01:28:24.887Z,5.48
2023-01-29T01:31:15.731Z,5.44
2023-01-29T01:34:06.671Z,5.41
2023-01-29T01:36:57.227Z,5.39
2023-01-29T01:39:49.315Z,5.39
2023-01-29T01:42:39.604Z,5.39
2023-01-29T01:45:31.806Z,5.40
2023-01-29T01:48:23.565Z,5.42
2023-01-29T01:51:15.084Z,5.44
2023-01-29T01:54:08.942Z,5.44
2023-01-29T01:57:09.441Z,5.45
2023-01-29T02:00:10.353Z,5.46
2023-01-29T02:03:25.203Z,5.44
2023-01-29T02:06:33.211Z,5.40
2023-01-29T02:09:37.054Z,5.35
2023-01-29T02:12:31.224Z,5.32
2023-01-29T02:15:22.122Z,5.31
2023-01-29T02:18:12.745Z,5.29
2023-01-29T02:21:13.119Z,5.27
2023-01-29T02:24:17.117Z,5.26
2023-01-29T02:27:10.428Z,5.24
2023-01-29T02:30:04.802Z,5.22
2023-01-29T02:33:02.405Z,5.19
2023-01-29T02:35:57.355Z,5.16
2023-01-29T02:38:52.260Z,5.13
2023-01-29T02:41:47.241Z,5.11
2023-01-29T02:44:39.966Z,5.12
2023-01-29T02:47:35.250Z,5.12
2023-01-29T02:50:30.375Z,5.13
2023-01-29T02:53:25.742Z,5.15
2023-01-29T02:59:34.345Z,5.17
2023-01-29T03:02:27.768Z,5.15
2023-01-29T03:05:23.260Z,5.13
2023-01-29T03:08:17.817Z,5.10
2023-01-29T03:11:08.517Z,5.07
2023-01-29T03:14:04.068Z,5.03
2023-01-29T03:16:57.202Z,4.99
2023-01-29T03:19:48.697Z,4.96
2023-01-29T03:22:50.792Z,4.92
2023-01-29T03:26:00.206Z,4.89
2023-01-29T03:29:11.415Z,4.86
2023-01-29T03:32:08.507Z,4.84
2023-01-29T03:35:06.585Z,4.82
2023-01-29T03:37:57.259Z,4.80
2023-01-29T03:40:50.551Z,4.78
2023-01-29T03:43:46.451Z,4.78
2023-01-29T03:46:42.606Z,4.78
2023-01-29T03:49:39.672Z,4.80
2023-01-29T03:52:38.617Z,4.82
2023-01-29T03:55:35.584Z,4.84
2023-01-29T03:58:29.275Z,4.86
2023-01-29T04:01:22.880Z,4.87
2023-01-29T04:04:16.449Z,4.87
2023-01-29T04:07:10.244Z,4.84
2023-01-29T04:10:03.058Z,4.80
2023-01-29T04:12:56.557Z,4.76
2023-01-29T04:15:48.979Z,4.74
2023-01-29T04:18:40.838Z,4.74
2023-01-29T04:21:34.525Z,4.75
2023-01-29T04:24:26.665Z,4.76
2023-01-29T04:27:57.643Z,4.77
2023-01-29T04:30:53.340Z,4.76
2023-01-29T04:33:46.417Z,4.73
2023-01-29T04:36:40.355Z,4.70
2023-01-29T04:39:34.341Z,4.68
2023-01-29T04:42:30.469Z,4.65
2023-01-29T04:45:27.184Z,4.63
2023-01-29T04:48:20.929Z,4.62
2023-01-29T04:51:13.908Z,4.60
2023-01-29T04:54:08.628Z,4.58
2023-01-29T04:57:03.123Z,4.55
2023-01-29T04:59:59.059Z,4.51
2023-01-29T05:02:50.302Z,4.47
2023-01-29T05:05:43.030Z,4.44
2023-01-29T05:08:34.439Z,4.42
2023-01-29T05:11:26.113Z,4.41
2023-01-29T05:14:18.859Z,4.41
2023-01-29T05:17:11.709Z,4.41
2023-01-29T05:20:02.260Z,4.42
2023-01-29T05:22:52.956Z,4.43
2023-01-29T05:25:43.495Z,4.45
2023-01-29T05:28:33.944Z,4.47
2023-01-29T05:31:24.476Z,4.50
2023-01-29T05:34:14.935Z,4.54
2023-01-29T05:37:06.509Z,4.58
2023-01-29T05:39:58.236Z,4.63
2023-01-29T05:42:48.697Z,4.67
2023-01-29T05:45:39.298Z,4.70
2023-01-29T05:48:31.585Z,4.74
2023-01-29T05:51:23.288Z,4.76
2023-01-29T05:54:14.166Z,4.78
2023-01-29T05:57:05.549Z,4.79
2023-01-29T05:59:56.869Z,4.80
2023-01-29T06:02:47.976Z,4.80
2023-01-29T06:05:40.258Z,4.80
2023-01-29T06:08:30.801Z,4.81
2023-01-29T06:11:21.904Z,4.80
2023-01-29T06:14:13.704Z,4.78
2023-01-29T06:17:05.049Z,4.77
2023-01-29T06:19:57.078Z,4.77
2023-01-29T06:22:47.711Z,4.77
2023-01-29T06:25:38.351Z,4.78
2023-01-29T06:28:29.242Z,4.78
2023-01-29T06:31:36.838Z,4.79
2023-01-29T06:34:30.455Z,4.78
2023-01-29T06:37:20.840Z,4.77
2023-01-29T06:40:12.538Z,4.76
2023-01-29T06:43:03.047Z,4.76
2023-01-29T06:45:54.603Z,4.77
2023-01-29T06:48:45.512Z,4.78
2023-01-29T06:51:36.071Z,4.79
2023-01-29T06:54:26.723Z,4.80
2023-01-29T06:57:17.373Z,4.81
2023-01-29T07:00:10.433Z,4.82
2023-01-29T07:03:01.102Z,4.83
2023-01-29T07:05:57.685Z,4.86
2023-01-29T07:08:48.305Z,4.87
2023-01-29T07:11:38.779Z,4.89
2023-01-29T07:14:29.311Z,4.91
2023-01-29T07:17:20.729Z,4.93
2023-01-29T07:20:12.961Z,4.95
2023-01-29T07:23:03.207Z,4.97
2023-01-29T07:25:53.646Z,4.98
2023-01-29T07:28:43.956Z,4.99
2023-01-29T07:31:34.463Z,5.01
2023-01-29T07:34:25.019Z,5.02
2023-01-29T07:37:15.575Z,5.04
2023-01-29T07:40:11.318Z,5.05
2023-01-29T07:43:02.210Z,5.04
2023-01-29T07:45:53.062Z,5.03
2023-01-29T07:48:46.603Z,5.04
2023-01-29T07:51:37.546Z,5.06
2023-01-29T07:54:28.106Z,5.09
2023-01-29T07:57:18.456Z,5.13
2023-01-29T08:00:10.446Z,5.16
2023-01-29T08:03:09.921Z,5.18
2023-01-29T08:06:00.382Z,5.22
2023-01-29T08:08:52.797Z,5.24
2023-01-29T08:11:42.934Z,5.28
2023-01-29T08:14:35.765Z,5.32
2023-01-29T08:17:26.088Z,5.36
2023-01-29T08:20:16.921Z,5.37
2023-01-29T08:23:08.475Z,5.37
2023-01-29T08:25:59.045Z,5.36
2023-01-29T08:28:49.558Z,5.35
2023-01-29T08:31:39.992Z,5.36
2023-01-29T08:34:30.421Z,5.39
2023-01-29T08:37:20.810Z,5.42
2023-01-29T08:40:13.519Z,5.45
2023-01-29T08:43:06.989Z,5.48
2023-01-29T08:45:58.624Z,5.51
2023-01-29T08:48:49.172Z,5.55
2023-01-29T08:51:39.569Z,5.59
2023-01-29T08:54:30.146Z,5.64
2023-01-29T08:57:20.582Z,5.68
2023-01-29T09:00:12.207Z,5.71
2023-01-29T09:03:03.962Z,5.73
2023-01-29T09:05:54.500Z,5.75
2023-01-29T09:08:46.569Z,5.79
2023-01-29T09:11:38.298Z,5.84
2023-01-29T09:14:29.201Z,5.90
2023-01-29T09:17:20.832Z,5.99
2023-01-29T09:20:13.593Z,6.09
2023-01-29T09:23:06.542Z,6.15
2023-01-29T09:25:57.082Z,6.20
2023-01-29T09:28:47.838Z,6.27
2023-01-29T09:31:38.439Z,6.33
2023-01-29T09:34:28.989Z,6.42
2023-01-29T09:37:21.057Z,6.46
2023-01-29T09:40:24.967Z,6.50
2023-01-29T09:43:18.148Z,6.56
2023-01-29T09:46:16.617Z,6.60
2023-01-29T09:49:09.746Z,6.63
2023-01-29T09:52:03.873Z,6.70
2023-01-29T09:54:58.712Z,6.81
2023-01-29T09:57:51.539Z,6.86
2023-01-29T10:00:47.014Z,6.91
2023-01-29T10:03:46.108Z,6.90
2023-01-29T10:06:44.906Z,6.87
2023-01-29T10:09:49.015Z,6.80
2023-01-29T10:12:48.359Z,6.73
2023-01-29T10:15:46.892Z,6.71
2023-01-29T10:19:06.375Z,6.70
2023-01-29T10:22:02.790Z,6.70
2023-01-29T10:24:55.458Z,6.72
2023-01-29T10:27:49.805Z,6.75
2023-01-29T10:30:44.821Z,6.84
2023-01-29T10:33:49.140Z,6.92
2023-01-29T10:36:46.855Z,7.03
2023-01-29T10:39:39.551Z,7.07
2023-01-29T10:42:36.128Z,7.10
2023-01-29T10:45:32.075Z,7.14
2023-01-29T10:48:41.747Z,7.16
2023-01-29T10:51:40.408Z,7.23
2023-01-29T10:54:46.763Z,7.33
2023-01-29T10:57:44.241Z,7.43
2023-01-29T11:00:42.633Z,7.51
2023-01-29T11:03:34.417Z,7.55
2023-01-29T11:06:26.516Z,7.58
2023-01-29T11:09:21.215Z,7.59
2023-01-29T11:12:14.698Z,7.62
2023-01-29T11:15:08.561Z,7.60
2023-01-29T11:18:09.496Z,7.59
2023-01-29T11:21:08.222Z,7.55
2023-01-29T11:24:08.980Z,7.54
2023-01-29T11:27:00.504Z,7.56
2023-01-29T11:29:53.406Z,7.58
2023-01-29T11:32:44.656Z,7.62
2023-01-29T11:35:36.593Z,7.65
2023-01-29T11:38:28.153Z,7.67
2023-01-29T11:41:22.544Z,7.68
2023-01-29T11:44:23.329Z,7.73
2023-01-29T11:47:20.140Z,7.80
2023-01-29T11:50:21.533Z,7.89
2023-01-29T11:53:23.918Z,8.01
2023-01-29T11:56:26.267Z,8.16
2023-01-29T11:59:28.485Z,8.28
2023-01-29T12:02:26.783Z,8.44
2023-01-29T12:05:18.938Z,8.57
2023-01-29T12:08:17.681Z,8.70
2023-01-29T12:11:15.982Z,8.84
2023-01-29T12:14:09.189Z,9.02
2023-01-29T12:17:01.658Z,9.12
2023-01-29T12:19:55.070Z,9.24
2023-01-29T12:22:48.654Z,9.32
2023-01-29T12:25:43.492Z,9.33
2023-01-29T12:28:45.938Z,9.33
2023-01-29T12:31:40.826Z,9.42
2023-01-29T12:34:42.338Z,9.63
2023-01-29T12:37:40.239Z,9.96
2023-01-29T12:40:36.188Z,10.36
2023-01-29T12:43:32.285Z,10.56
2023-01-29T12:46:26.602Z,10.75
2023-01-29T12:49:21.559Z,11.11
2023-01-29T12:52:15.817Z,11.41
2023-01-29T12:55:16.165Z,11.55
2023-01-29T12:58:11.858Z,11.71
2023-01-29T13:01:08.452Z,11.97
2023-01-29T13:04:02.898Z,12.26
2023-01-29T13:06:59.658Z,12.53
2023-01-29T13:09:55.006Z,12.82
2023-01-29T13:12:52.942Z,12.93
2023-01-29T13:15:45.630Z,13.37
2023-01-29T13:18:52.061Z,13.83
2023-01-29T13:21:43.977Z,14.19
2023-01-29T13:24:40.491Z,14.65
2023-01-29T13:27:31.815Z,14.87
2023-01-29T13:30:32.392Z,15.08
2023-01-29T13:33:25.130Z,15.09
2023-01-29T13:36:22.643Z,15.26
2023-01-29T13:39:20.712Z,15.38
2023-01-29T13:42:18.904Z,15.27
2023-01-29T13:45:11.063Z,14.66
2023-01-29T13:48:10.442Z,14.25
2023-01-29T13:51:04.851Z,13.87
2023-01-29T13:53:57.310Z,13.69
2023-01-29T13:56:59.359Z,14.01
2023-01-29T13:59:53.486Z,14.22
2023-01-29T14:02:44.046Z,13.77
2023-01-29T14:05:45.695Z,13.30
2023-01-29T14:08:44.739Z,12.88
2023-01-29T14:11:49.179Z,12.58
2023-01-29T14:15:04.685Z,12.34
2023-01-29T14:18:14.511Z,12.46
2023-01-29T14:21:06.439Z,12.62
2023-01-29T14:23:58.497Z,12.87
2023-01-29T14:26:49.678Z,13.15
2023-01-29T14:29:42.777Z,13.18
2023-01-29T14:32:33.295Z,13.12
2023-01-29T14:35:25.432Z,12.74
2023-01-29T14:38:16.320Z,12.35
2023-01-29T14:41:12.361Z,12.04
2023-01-29T14:44:19.972Z,11.76
2023-01-29T14:47:19.273Z,11.55
2023-01-29T14:50:23.273Z,11.36
2023-01-29T14:53:15.998Z,11.19
2023-01-29T14:56:13.074Z,10.96
2023-01-29T14:59:13.744Z,10.72
2023-01-29T15:02:07.270Z,10.55
2023-01-29T15:04:59.434Z,10.42
2023-01-29T15:07:54.000Z,10.30
2023-01-29T15:10:47.143Z,10.21
2023-01-29T15:13:43.079Z,10.15
2023-01-29T15:16:37.134Z,10.09
2023-01-29T15:19:30.574Z,10.05
2023-01-29T15:22:21.927Z,10.05
2023-01-29T15:25:15.612Z,10.06
2023-01-29T15:28:10.460Z,10.14
2023-01-29T15:31:02.389Z,10.25
2023-01-29T15:33:59.498Z,10.34
2023-01-29T15:36:50.829Z,10.40
2023-01-29T15:39:45.272Z,10.40
2023-01-29T15:42:47.833Z,10.34
2023-01-29T15:45:41.743Z,10.31
2023-01-29T15:48:34.297Z,10.29
2023-01-29T15:51:33.567Z,10.28
2023-01-29T15:54:24.601Z,10.28
2023-01-29T15:57:21.032Z,10.29
2023-01-29T16:00:22.359Z,10.26
2023-01-29T16:03:16.778Z,10.23
2023-01-29T16:06:08.986Z,10.19
2023-01-29T16:09:00.023Z,10.16
2023-01-29T16:11:51.750Z,10.15
2023-01-29T16:14:45.315Z,10.13
2023-01-29T16:17:36.465Z,10.12
2023-01-29T16:20:44.803Z,10.09
2023-01-29T16:23:38.239Z,10.05
2023-01-29T16:26:30.322Z,10.03
2023-01-29T16:29:22.863Z,10.02
2023-01-29T16:32:14.441Z,10.00
2023-01-29T16:35:05.598Z,9.97
2023-01-29T16:38:02.278Z,9.93
2023-01-29T16:41:06.541Z,9.88
2023-01-29T16:43:58.374Z,9.86
2023-01-29T16:46:49.348Z,9.85
2023-01-29T16:49:50.366Z,9.85
2023-01-29T16:52:40.897Z,9.86
2023-01-29T16:55:36.627Z,9.85
2023-01-29T16:58:30.414Z,9.85
2023-01-29T17:01:21.934Z,9.84
2023-01-29T17:04:15.066Z,9.83
2023-01-29T17:07:05.540Z,9.83
2023-01-29T17:09:58.784Z,9.82
2023-01-29T17:12:52.873Z,9.79
2023-01-29T17:15:46.948Z,9.74
2023-01-29T17:18:37.539Z,9.71
2023-01-29T17:21:28.341Z,9.69
2023-01-29T17:24:18.920Z,9.68
2023-01-29T17:27:13.138Z,9.68
2023-01-29T17:30:03.587Z,9.67
2023-01-29T17:32:53.941Z,9.67
2023-01-29T17:35:46.409Z,9.67
2023-01-29T17:38:36.705Z,9.66
2023-01-29T17:41:29.139Z,9.65
2023-01-29T17:44:19.822Z,9.62
2023-01-29T17:47:11.983Z,9.59
2023-01-29T17:50:02.418Z,9.57
2023-01-29T17:52:53.954Z,9.57
2023-01-29T17:55:44.780Z,9.58
2023-01-29T17:58:35.271Z,9.61
2023-01-29T18:01:25.830Z,9.65
2023-01-29T18:04:16.412Z,9.67
2023-01-29T18:07:06.840Z,9.69
2023-01-29T18:09:57.381Z,9.72
2023-01-29T18:12:47.961Z,9.74
2023-01-29T18:15:38.395Z,9.76
2023-01-29T18:18:28.692Z,9.77
2023-01-29T18:21:19.342Z,9.77
2023-01-29T18:24:10.624Z,9.78
2023-01-29T18:27:01.418Z,9.78
2023-01-29T18:29:52.089Z,9.78
2023-01-29T18:32:42.632Z,9.78
2023-01-29T18:35:36.887Z,9.78
2023-01-29T18:38:27.629Z,9.76
2023-01-29T18:41:18.241Z,9.76
2023-01-29T18:44:08.723Z,9.75
2023-01-29T18:46:59.044Z,9.77
2023-01-29T18:49:49.711Z,9.78
2023-01-29T18:52:40.977Z,9.77
2023-01-29T18:55:31.378Z,9.77
2023-01-29T18:58:28.747Z,9.77
2023-01-29T19:01:27.357Z,9.77
2023-01-29T19:04:18.525Z,9.77
2023-01-29T19:07:09.291Z,9.75
2023-01-29T19:09:59.849Z,9.74
2023-01-29T19:12:51.037Z,9.74
2023-01-29T19:15:44.707Z,9.72
2023-01-29T19:18:34.797Z,9.71
2023-01-29T19:21:25.729Z,9.72
2023-01-29T19:24:16.650Z,9.72
2023-01-29T19:27:07.321Z,9.70
2023-01-29T19:29:58.650Z,9.69
2023-01-29T19:32:49.390Z,9.66
2023-01-29T19:35:39.893Z,9.63
2023-01-29T19:38:33.559Z,9.59
2023-01-29T19:41:23.743Z,9.56
2023-01-29T19:44:14.866Z,9.53
2023-01-29T19:47:05.445Z,9.51
2023-01-29T19:49:56.061Z,9.47
2023-01-29T19:52:51.417Z,9.45
2023-01-29T19:55:48.479Z,9.42
2023-01-29T19:58:39.825Z,9.42
2023-01-29T20:01:30.639Z,9.41
2023-01-29T20:04:21.346Z,9.42
2023-01-29T20:07:11.989Z,9.43
2023-01-29T20:10:02.374Z,9.41
2023-01-29T20:12:52.925Z,9.38
2023-01-29T20:15:46.932Z,9.35
2023-01-29T20:18:37.486Z,9.31
2023-01-29T20:21:30.489Z,9.25
2023-01-29T20:24:21.057Z,9.18
2023-01-29T20:27:11.805Z,9.09
2023-01-29T20:30:02.186Z,9.01
2023-01-29T20:32:52.631Z,8.94
2023-01-29T20:35:43.171Z,8.88
2023-01-29T20:38:34.794Z,8.84
2023-01-29T20:41:25.270Z,8.79
2023-01-29T20:44:15.544Z,8.76
2023-01-29T20:47:05.908Z,8.72
2023-01-29T20:49:56.423Z,8.68
2023-01-29T20:52:47.486Z,8.63
2023-01-29T20:55:39.363Z,8.59
2023-01-29T20:58:37.140Z,8.55
2023-01-29T21:01:30.064Z,8.52
2023-01-29T21:04:21.596Z,8.48
2023-01-29T21:07:12.072Z,8.46
2023-01-29T21:10:02.525Z,8.42
2023-01-29T21:12:54.762Z,8.39
2023-01-29T21:15:45.663Z,8.35
2023-01-29T21:18:36.206Z,8.32
2023-01-29T21:21:28.447Z,8.29
2023-01-29T21:24:19.119Z,8.24
2023-01-29T21:27:09.865Z,8.17
2023-01-29T21:30:00.403Z,8.06
2023-01-29T21:32:51.059Z,7.97
2023-01-29T21:35:41.724Z,7.86
2023-01-29T21:38:32.224Z,7.75
2023-01-29T21:41:46.090Z,7.64
2023-01-29T21:44:36.896Z,7.53
2023-01-29T21:47:29.458Z,7.44
2023-01-29T21:50:20.475Z,7.34
2023-01-29T21:53:12.025Z,7.24
2023-01-29T21:56:03.100Z,7.12
2023-01-29T21:58:53.724Z,7.01
2023-01-29T22:01:44.262Z,6.91
2023-01-29T22:04:34.931Z,6.85
2023-01-29T22:07:25.556Z,6.78
2023-01-29T22:10:16.406Z,6.70
2023-01-29T22:13:07.127Z,6.63
2023-01-29T22:15:57.331Z,6.55
2023-01-29T22:18:48.048Z,6.47
2023-01-29T22:21:38.533Z,6.40
2023-01-29T22:24:29.096Z,6.38
2023-01-29T22:27:19.696Z,6.38
2023-01-29T22:30:11.391Z,6.39
2023-01-29T22:33:01.949Z,6.40
2023-01-29T22:35:56.050Z,6.41
2023-01-29T22:38:46.811Z,6.40
2023-01-29T22:41:37.355Z,6.39
2023-01-29T22:44:27.702Z,6.37
2023-01-29T22:47:18.667Z,6.37
2023-01-29T22:50:10.194Z,6.38
2023-01-29T22:53:00.653Z,6.36
2023-01-29T22:55:56.131Z,6.32
2023-01-29T22:58:46.655Z,6.27
2023-01-29T23:01:37.248Z,6.22
2023-01-29T23:04:27.728Z,6.17
2023-01-29T23:07:18.315Z,6.12
2023-01-29T23:10:09.744Z,6.07
2023-01-29T23:13:00.139Z,6.01
2023-01-29T23:16:00.744Z,5.98
2023-01-29T23:18:53.026Z,5.94
2023-01-29T23:21:44.103Z,5.92
2023-01-29T23:24:34.542Z,5.89
2023-01-29T23:27:24.907Z,5.89
2023-01-29T23:30:15.679Z,5.90
2023-01-29T23:33:06.832Z,5.92
2023-01-29T23:35:57.278Z,5.93
2023-01-29T23:38:47.584Z,5.93
2023-01-29T23:41:38.299Z,5.95
2023-01-29T23:44:32.631Z,5.98
2023-01-29T23:47:22.784Z,6.02
2023-01-29T23:50:14.391Z,6.10
2023-01-29T23:53:04.742Z,6.17
2023-01-29T23:55:58.917Z,6.21
2023-01-29T23:58:49.333Z,6.25
